sensor_id;sensor_type;location;lat;lon;timestamp;pressure;altitude;pressure_sealevel;temperature;humidity
67109;BME280;54027;50.786;7.058;2023-03-11T00:00:18;100124.69;;;2.26;81.52
67109;BME280;54027;50.786;7.058;2023-03-11T00:02:46;100126.47;;;2.30;81.46
67109;BME280;54027;50.786;7.058;2023-03-11T00:05:23;100134.16;;;2.33;80.78
67109;BME280;54027;50.786;7.058;2023-03-11T00:07:49;100138.41;;;2.33;80.80
67109;BME280;54027;50.786;7.058;2023-03-11T00:10:24;100157.94;;;2.31;81.66
67109;BME280;54027;50.786;7.058;2023-03-11T00:12:49;100139.22;;;2.30;81.18
67109;BME280;54027;50.786;7.058;2023-03-11T00:15:15;100145.22;;;2.35;79.96
67109;BME280;54027;50.786;7.058;2023-03-11T00:17:41;100149.50;;;2.36;80.22
67109;BME280;54027;50.786;7.058;2023-03-11T00:20:07;100150.38;;;2.38;79.78
67109;BME280;54027;50.786;7.058;2023-03-11T00:22:35;100139.34;;;2.39;79.60
67109;BME280;54027;50.786;7.058;2023-03-11T00:25:01;100158.88;;;2.39;80.13
67109;BME280;54027;50.786;7.058;2023-03-11T00:27:26;100159.75;;;2.39;79.67
67109;BME280;54027;50.786;7.058;2023-03-11T00:29:51;100156.34;;;2.39;79.56
67109;BME280;54027;50.786;7.058;2023-03-11T00:32:17;100165.63;;;2.37;80.11
67109;BME280;54027;50.786;7.058;2023-03-11T00:34:43;100168.19;;;2.35;79.67
67109;BME280;54027;50.786;7.058;2023-03-11T00:37:08;100170.78;;;2.38;79.42
67109;BME280;54027;50.786;7.058;2023-03-11T00:39:33;100190.31;;;2.38;80.34
67109;BME280;54027;50.786;7.058;2023-03-11T00:41:59;100179.28;;;2.39;79.80
67109;BME280;54027;50.786;7.058;2023-03-11T00:44:24;100188.56;;;2.35;79.95
67109;BME280;54027;50.786;7.058;2023-03-11T00:46:50;100181.88;;;2.42;78.79
67109;BME280;54027;50.786;7.058;2023-03-11T00:49:16;100181.88;;;2.42;78.68
67109;BME280;54027;50.786;7.058;2023-03-11T00:51:42;100190.41;;;2.42;79.29
67109;BME280;54027;50.786;7.058;2023-03-11T00:54:08;100190.34;;;2.41;80.04
67109;BME280;54027;50.786;7.058;2023-03-11T00:56:33;100195.47;;;2.41;79.79
67109;BME280;54027;50.786;7.058;2023-03-11T00:58:59;100209.00;;;2.37;80.36
67109;BME280;54027;50.786;7.058;2023-03-11T01:01:24;100221.75;;;2.37;80.60
67109;BME280;54027;50.786;7.058;2023-03-11T01:03:50;100225.06;;;2.31;81.51
67109;BME280;54027;50.786;7.058;2023-03-11T01:06:15;100238.56;;;2.26;81.99
67109;BME280;54027;50.786;7.058;2023-03-11T01:08:41;100230.00;;;2.21;83.43
67109;BME280;54027;50.786;7.058;2023-03-11T01:11:07;100234.19;;;2.17;83.44
67109;BME280;54027;50.786;7.058;2023-03-11T01:13:33;100237.50;;;2.13;83.64
67109;BME280;54027;50.786;7.058;2023-03-11T01:15:59;100242.59;;;2.13;84.19
67109;BME280;54027;50.786;7.058;2023-03-11T01:18:25;100234.06;;;2.11;83.81
67109;BME280;54027;50.786;7.058;2023-03-11T01:20:51;100238.31;;;2.09;84.78
67109;BME280;54027;50.786;7.058;2023-03-11T01:23:17;100232.34;;;2.09;83.71
67109;BME280;54027;50.786;7.058;2023-03-11T01:25:43;100240.84;;;2.11;83.82
67109;BME280;54027;50.786;7.058;2023-03-11T01:28:09;100228.16;;;2.14;82.45
67109;BME280;54027;50.786;7.058;2023-03-11T01:30:39;100233.31;;;2.15;82.14
67109;BME280;54027;50.786;7.058;2023-03-11T01:33:06;100239.31;;;2.19;81.14
67109;BME280;54027;50.786;7.058;2023-03-11T01:35:32;100233.41;;;2.23;80.28
67109;BME280;54027;50.786;7.058;2023-03-11T01:37:58;100230.03;;;2.24;80.18
67109;BME280;54027;50.786;7.058;2023-03-11T01:40:35;100248.75;;;2.24;81.16
67109;BME280;54027;50.786;7.058;2023-03-11T01:43:03;100247.09;;;2.26;80.53
67109;BME280;54027;50.786;7.058;2023-03-11T01:47:58;100230.09;;;2.28;79.29
67109;BME280;54027;50.786;7.058;2023-03-11T01:50:24;100238.56;;;2.26;80.20
67109;BME280;54027;50.786;7.058;2023-03-11T01:52:52;100232.66;;;2.27;79.70
67109;BME280;54027;50.786;7.058;2023-03-11T01:55:18;100241.09;;;2.24;80.02
67109;BME280;54027;50.786;7.058;2023-03-11T01:57:45;100237.69;;;2.24;79.66
67109;BME280;54027;50.786;7.058;2023-03-11T02:00:13;100231.78;;;2.25;79.48
67109;BME280;54027;50.786;7.058;2023-03-11T02:02:50;100254.66;;;2.22;79.92
67109;BME280;54027;50.786;7.058;2023-03-11T02:05:16;100244.47;;;2.22;80.09
67109;BME280;54027;50.786;7.058;2023-03-11T02:07:43;100246.13;;;2.20;79.87
67109;BME280;54027;50.786;7.058;2023-03-11T02:10:10;100246.97;;;2.19;79.76
67109;BME280;54027;50.786;7.058;2023-03-11T02:12:37;100269.00;;;2.15;80.77
67109;BME280;54027;50.786;7.058;2023-03-11T02:15:03;100259.56;;;2.11;80.39
67109;BME280;54027;50.786;7.058;2023-03-11T02:17:31;100261.25;;;2.09;80.76
67109;BME280;54027;50.786;7.058;2023-03-11T02:22:29;100264.50;;;2.02;79.86
67109;BME280;54027;50.786;7.058;2023-03-11T02:25:05;100269.59;;;2.01;80.35
67109;BME280;54027;50.786;7.058;2023-03-11T02:27:35;100260.19;;;1.98;79.95
67109;BME280;54027;50.786;7.058;2023-03-11T02:30:03;100260.22;;;2.00;79.64
67109;BME280;54027;50.786;7.058;2023-03-11T02:32:29;100255.09;;;1.98;78.54
67109;BME280;54027;50.786;7.058;2023-03-11T02:34:54;100241.50;;;1.99;78.41
67109;BME280;54027;50.786;7.058;2023-03-11T02:37:20;100272.09;;;1.99;79.85
67109;BME280;54027;50.786;7.058;2023-03-11T02:39:49;100254.25;;;1.98;78.67
67109;BME280;54027;50.786;7.058;2023-03-11T02:42:16;100251.69;;;1.98;78.57
67109;BME280;54027;50.786;7.058;2023-03-11T02:44:45;100251.72;;;1.99;77.81
67109;BME280;54027;50.786;7.058;2023-03-11T02:47:13;100246.59;;;1.98;77.37
67109;BME280;54027;50.786;7.058;2023-03-11T02:49:39;100261.84;;;1.96;77.66
67109;BME280;54027;50.786;7.058;2023-03-11T02:52:05;100262.66;;;1.94;77.55
67109;BME280;54027;50.786;7.058;2023-03-11T02:54:30;100261.78;;;1.92;77.70
67109;BME280;54027;50.786;7.058;2023-03-11T02:56:56;100271.91;;;1.90;77.68
67109;BME280;54027;50.786;7.058;2023-03-11T02:59:21;100275.31;;;1.89;77.82
67109;BME280;54027;50.786;7.058;2023-03-11T03:01:47;100265.09;;;1.88;76.88
67109;BME280;54027;50.786;7.058;2023-03-11T03:04:12;100264.22;;;1.85;77.12
67109;BME280;54027;50.786;7.058;2023-03-11T03:06:37;100265.84;;;1.83;77.44
67109;BME280;54027;50.786;7.058;2023-03-11T03:09:03;100248.81;;;1.81;76.34
67109;BME280;54027;50.786;7.058;2023-03-11T03:11:28;100257.31;;;1.80;76.17
67109;BME280;54027;50.786;7.058;2023-03-11T03:13:54;100255.59;;;1.79;76.21
67109;BME280;54027;50.786;7.058;2023-03-11T03:16:19;100248.81;;;1.81;75.40
67109;BME280;54027;50.786;7.058;2023-03-11T03:18:45;100263.19;;;1.76;76.09
67109;BME280;54027;50.786;7.058;2023-03-11T03:21:10;100269.91;;;1.72;76.64
67109;BME280;54027;50.786;7.058;2023-03-11T03:23:35;100267.22;;;1.65;76.39
67109;BME280;54027;50.786;7.058;2023-03-11T03:26:03;100278.09;;;1.58;76.98
67109;BME280;54027;50.786;7.058;2023-03-11T03:28:29;100275.44;;;1.52;76.82
67109;BME280;54027;50.786;7.058;2023-03-11T03:30:55;100267.72;;;1.47;76.59
67109;BME280;54027;50.786;7.058;2023-03-11T03:33:20;100271.88;;;1.44;76.08
67109;BME280;54027;50.786;7.058;2023-03-11T03:35:46;100286.22;;;1.39;77.06
67109;BME280;54027;50.786;7.058;2023-03-11T03:38:11;100288.69;;;1.36;76.63
67109;BME280;54027;50.786;7.058;2023-03-11T03:40:37;100296.28;;;1.33;77.49
67109;BME280;54027;50.786;7.058;2023-03-11T03:43:03;100324.91;;;1.22;78.56
67109;BME280;54027;50.786;7.058;2023-03-11T03:45:28;100307.97;;;1.24;77.12
67109;BME280;54027;50.786;7.058;2023-03-11T03:47:54;100307.06;;;1.22;77.36
67109;BME280;54027;50.786;7.058;2023-03-11T03:50:19;100301.91;;;1.19;76.66
67109;BME280;54027;50.786;7.058;2023-03-11T03:52:45;100308.69;;;1.17;77.42
67109;BME280;54027;50.786;7.058;2023-03-11T03:55:10;100307.75;;;1.15;77.32
67109;BME280;54027;50.786;7.058;2023-03-11T03:57:36;100316.03;;;1.05;77.44
67109;BME280;54027;50.786;7.058;2023-03-11T04:00:03;100321.00;;;1.01;77.88
67109;BME280;54027;50.786;7.058;2023-03-11T04:02:29;100340.34;;;0.93;78.58
67109;BME280;54027;50.786;7.058;2023-03-11T04:04:55;100343.56;;;0.86;79.17
67109;BME280;54027;50.786;7.058;2023-03-11T04:07:21;100340.09;;;0.82;79.25
67109;BME280;54027;50.786;7.058;2023-03-11T04:09:46;100339.97;;;0.78;79.11
67109;BME280;54027;50.786;7.058;2023-03-11T04:12:13;100342.44;;;0.74;79.07
67109;BME280;54027;50.786;7.058;2023-03-11T04:14:39;100347.53;;;0.74;78.82
67109;BME280;54027;50.786;7.058;2023-03-11T04:17:04;100348.31;;;0.72;78.76
67109;BME280;54027;50.786;7.058;2023-03-11T04:19:31;100358.41;;;0.69;78.88
67109;BME280;54027;50.786;7.058;2023-03-11T04:21:56;100365.19;;;0.68;79.57
67109;BME280;54027;50.786;7.058;2023-03-11T04:24:22;100364.28;;;0.66;79.45
67109;BME280;54027;50.786;7.058;2023-03-11T04:26:47;100370.97;;;0.61;79.87
67109;BME280;54027;50.786;7.058;2023-03-11T04:29:12;100375.09;;;0.58;80.18
67109;BME280;54027;50.786;7.058;2023-03-11T04:31:38;100377.56;;;0.55;80.56
67109;BME280;54027;50.786;7.058;2023-03-11T04:34:03;100381.81;;;0.56;79.95
67109;BME280;54027;50.786;7.058;2023-03-11T04:36:28;100380.84;;;0.51;80.82
67109;BME280;54027;50.786;7.058;2023-03-11T04:38:55;100376.72;;;0.56;80.23
67109;BME280;54027;50.786;7.058;2023-03-11T04:41:21;100381.88;;;0.57;80.35
67109;BME280;54027;50.786;7.058;2023-03-11T04:43:46;100390.28;;;0.55;80.86
67109;BME280;54027;50.786;7.058;2023-03-11T04:46:12;100380.28;;;0.61;80.55
67109;BME280;54027;50.786;7.058;2023-03-11T04:48:37;100380.34;;;0.64;79.92
67109;BME280;54027;50.786;7.058;2023-03-11T04:51:03;100371.13;;;0.67;79.43
67109;BME280;54027;50.786;7.058;2023-03-11T04:53:28;100377.88;;;0.67;79.68
67109;BME280;54027;50.786;7.058;2023-03-11T04:55:53;100376.13;;;0.64;79.54
67109;BME280;54027;50.786;7.058;2023-03-11T04:58:19;100378.63;;;0.63;79.87
67109;BME280;54027;50.786;7.058;2023-03-11T05:00:45;100382.69;;;0.56;80.50
67109;BME280;54027;50.786;7.058;2023-03-11T05:03:10;100388.56;;;0.54;80.49
67109;BME280;54027;50.786;7.058;2023-03-11T05:05:35;100391.78;;;0.47;81.53
67109;BME280;54027;50.786;7.058;2023-03-11T05:08:01;100387.44;;;0.44;80.93
67109;BME280;54027;50.786;7.058;2023-03-11T05:10:26;100389.97;;;0.43;81.62
67109;BME280;54027;50.786;7.058;2023-03-11T05:12:52;100394.09;;;0.39;81.27
67109;BME280;54027;50.786;7.058;2023-03-11T05:15:18;100394.81;;;0.34;82.03
67109;BME280;54027;50.786;7.058;2023-03-11T05:17:44;100401.47;;;0.29;82.58
67109;BME280;54027;50.786;7.058;2023-03-11T05:20:10;100399.81;;;0.31;82.38
67109;BME280;54027;50.786;7.058;2023-03-11T05:22:36;100401.53;;;0.32;82.25
67109;BME280;54027;50.786;7.058;2023-03-11T05:25:01;100415.88;;;0.30;82.40
67109;BME280;54027;50.786;7.058;2023-03-11T05:27:27;100410.78;;;0.30;82.99
67109;BME280;54027;50.786;7.058;2023-03-11T05:29:52;100414.16;;;0.29;82.92
67109;BME280;54027;50.786;7.058;2023-03-11T05:32:17;100409.97;;;0.31;83.19
67109;BME280;54027;50.786;7.058;2023-03-11T05:34:44;100423.66;;;0.36;83.21
67109;BME280;54027;50.786;7.058;2023-03-11T05:37:09;100422.94;;;0.40;82.93
67109;BME280;54027;50.786;7.058;2023-03-11T05:39:34;100424.75;;;0.44;82.40
67109;BME280;54027;50.786;7.058;2023-03-11T05:42:02;100428.22;;;0.47;82.37
67109;BME280;54027;50.786;7.058;2023-03-11T05:44:28;100430.84;;;0.50;82.31
67109;BME280;54027;50.786;7.058;2023-03-11T05:46:53;100424.13;;;0.52;82.16
67109;BME280;54027;50.786;7.058;2023-03-11T05:49:19;100425.97;;;0.58;81.21
67109;BME280;54027;50.786;7.058;2023-03-11T05:51:45;100427.75;;;0.62;80.98
67109;BME280;54027;50.786;7.058;2023-03-11T05:54:11;100427.81;;;0.65;81.24
67109;BME280;54027;50.786;7.058;2023-03-11T05:56:40;100429.56;;;0.66;80.08
67109;BME280;54027;50.786;7.058;2023-03-11T05:59:06;100425.28;;;0.65;80.42
67109;BME280;54027;50.786;7.058;2023-03-11T06:01:32;100435.38;;;0.62;81.46
67109;BME280;54027;50.786;7.058;2023-03-11T06:03:59;100438.84;;;0.64;81.18
67109;BME280;54027;50.786;7.058;2023-03-11T06:06:24;100443.13;;;0.66;81.10
67109;BME280;54027;50.786;7.058;2023-03-11T06:08:49;100431.38;;;0.71;80.38
67109;BME280;54027;50.786;7.058;2023-03-11T06:11:15;100433.16;;;0.74;80.21
67109;BME280;54027;50.786;7.058;2023-03-11T06:13:41;100437.34;;;0.72;80.77
67109;BME280;54027;50.786;7.058;2023-03-11T06:16:07;100436.47;;;0.71;80.53
67109;BME280;54027;50.786;7.058;2023-03-11T06:18:32;100438.13;;;0.69;81.00
67109;BME280;54027;50.786;7.058;2023-03-11T06:20:59;100444.91;;;0.69;81.00
67109;BME280;54027;50.786;7.058;2023-03-11T06:23:25;100438.16;;;0.71;80.96
67109;BME280;54027;50.786;7.058;2023-03-11T06:26:02;100439.97;;;0.75;80.47
67109;BME280;54027;50.786;7.058;2023-03-11T06:28:28;100452.84;;;0.81;80.87
67109;BME280;54027;50.786;7.058;2023-03-11T06:30:54;100446.19;;;0.86;80.27
67109;BME280;54027;50.786;7.058;2023-03-11T06:33:25;100455.69;;;0.93;80.50
67109;BME280;54027;50.786;7.058;2023-03-11T06:36:01;100457.59;;;1.02;80.20
67109;BME280;54027;50.786;7.058;2023-03-11T06:38:26;100464.66;;;1.12;80.06
67109;BME280;54027;50.786;7.058;2023-03-11T06:40:52;100460.69;;;1.23;79.23
67109;BME280;54027;50.786;7.058;2023-03-11T06:43:18;100456.75;;;1.36;78.98
67109;BME280;54027;50.786;7.058;2023-03-11T06:45:44;100441.78;;;1.49;76.94
67109;BME280;54027;50.786;7.058;2023-03-11T06:48:09;100431.88;;;1.63;76.36
67109;BME280;54027;50.786;7.058;2023-03-11T06:50:35;100436.34;;;1.73;76.16
67109;BME280;54027;50.786;7.058;2023-03-11T06:53:00;100440.91;;;1.88;76.29
67109;BME280;54027;50.786;7.058;2023-03-11T06:55:27;100459.06;;;2.01;76.87
67109;BME280;54027;50.786;7.058;2023-03-11T06:57:52;100437.19;;;2.12;75.40
67109;BME280;54027;50.786;7.058;2023-03-11T07:00:18;100433.84;;;2.16;74.49
67109;BME280;54027;50.786;7.058;2023-03-11T07:02:43;100434.69;;;2.15;74.13
67109;BME280;54027;50.786;7.058;2023-03-11T07:05:09;100454.25;;;2.16;74.71
67109;BME280;54027;50.786;7.058;2023-03-11T07:07:34;100468.72;;;2.16;75.10
67109;BME280;54027;50.786;7.058;2023-03-11T07:10:00;100472.84;;;2.11;74.10
67109;BME280;54027;50.786;7.058;2023-03-11T07:12:25;100489.00;;;2.11;75.52
67109;BME280;54027;50.786;7.058;2023-03-11T07:14:58;100482.16;;;2.10;74.88
67109;BME280;54027;50.786;7.058;2023-03-11T07:17:24;100501.88;;;2.17;75.25
67109;BME280;54027;50.786;7.058;2023-03-11T07:19:49;100490.06;;;2.21;75.37
67109;BME280;54027;50.786;7.058;2023-03-11T07:22:15;100493.47;;;2.23;74.85
67109;BME280;54027;50.786;7.058;2023-03-11T07:24:44;100510.59;;;2.27;75.02
67109;BME280;54027;50.786;7.058;2023-03-11T07:27:09;100500.31;;;2.24;74.33
67109;BME280;54027;50.786;7.058;2023-03-11T07:29:34;100512.31;;;2.28;74.30
67109;BME280;54027;50.786;7.058;2023-03-11T07:32:00;100512.44;;;2.35;74.32
67109;BME280;54027;50.786;7.058;2023-03-11T07:34:25;100502.28;;;2.37;73.46
67109;BME280;54027;50.786;7.058;2023-03-11T07:36:51;100526.94;;;2.36;73.66
67109;BME280;54027;50.786;7.058;2023-03-11T07:39:17;100519.91;;;2.25;73.70
67109;BME280;54027;50.786;7.058;2023-03-11T07:41:43;100529.13;;;2.20;74.14
67109;BME280;54027;50.786;7.058;2023-03-11T07:44:11;100534.88;;;2.10;74.75
67109;BME280;54027;50.786;7.058;2023-03-11T07:46:37;100556.94;;;2.09;75.47
67109;BME280;54027;50.786;7.058;2023-03-11T07:49:02;100548.56;;;2.16;74.60
67109;BME280;54027;50.786;7.058;2023-03-11T07:51:31;100549.66;;;2.26;74.32
67109;BME280;54027;50.786;7.058;2023-03-11T07:53:58;100554.00;;;2.31;74.63
67109;BME280;54027;50.786;7.058;2023-03-11T07:56:26;100560.09;;;2.36;74.22
67109;BME280;54027;50.786;7.058;2023-03-11T07:58:51;100574.53;;;2.36;74.87
67109;BME280;54027;50.786;7.058;2023-03-11T08:01:19;100557.47;;;2.33;74.42
67109;BME280;54027;50.786;7.058;2023-03-11T08:03:47;100557.41;;;2.30;74.04
67109;BME280;54027;50.786;7.058;2023-03-11T08:06:18;100565.16;;;2.35;74.62
67109;BME280;54027;50.786;7.058;2023-03-11T08:08:45;100576.28;;;2.38;74.58
67109;BME280;54027;50.786;7.058;2023-03-11T08:11:12;100583.25;;;2.46;74.77
67109;BME280;54027;50.786;7.058;2023-03-11T08:13:38;100575.66;;;2.49;73.91
67109;BME280;54027;50.786;7.058;2023-03-11T08:16:05;100566.28;;;2.49;73.98
67109;BME280;54027;50.786;7.058;2023-03-11T08:18:32;100561.31;;;2.55;73.70
67109;BME280;54027;50.786;7.058;2023-03-11T08:20:58;100559.59;;;2.54;73.45
67109;BME280;54027;50.786;7.058;2023-03-11T08:23:24;100549.53;;;2.60;73.08
67109;BME280;54027;50.786;7.058;2023-03-11T08:25:49;100568.34;;;2.67;73.26
67109;BME280;54027;50.786;7.058;2023-03-11T08:28:15;100568.47;;;2.73;73.85
67109;BME280;54027;50.786;7.058;2023-03-11T08:30:40;100543.06;;;2.77;71.90
67109;BME280;54027;50.786;7.058;2023-03-11T08:33:06;100545.66;;;2.80;73.00
67109;BME280;54027;50.786;7.058;2023-03-11T08:35:31;100563.59;;;2.85;72.96
67109;BME280;54027;50.786;7.058;2023-03-11T08:37:56;100569.81;;;2.97;72.86
67109;BME280;54027;50.786;7.058;2023-03-11T08:40:22;100532.50;;;3.06;70.39
67109;BME280;54027;50.786;7.058;2023-03-11T08:42:48;100521.59;;;3.13;70.62
67109;BME280;54027;50.786;7.058;2023-03-11T08:45:13;100550.72;;;3.24;71.43
67109;BME280;54027;50.786;7.058;2023-03-11T08:47:39;100543.25;;;3.34;71.13
67109;BME280;54027;50.786;7.058;2023-03-11T08:50:08;100534.97;;;3.49;71.91
67109;BME280;54027;50.786;7.058;2023-03-11T08:52:34;100530.19;;;3.69;71.27
67109;BME280;54027;50.786;7.058;2023-03-11T08:54:59;100473.34;;;3.85;68.31
67109;BME280;54027;50.786;7.058;2023-03-11T08:57:25;100428.34;;;4.00;66.68
67109;BME280;54027;50.786;7.058;2023-03-11T08:59:50;100426.03;;;4.17;66.98
67109;BME280;54027;50.786;7.058;2023-03-11T09:02:15;100420.78;;;4.08;65.71
67109;BME280;54027;50.786;7.058;2023-03-11T09:04:41;100437.84;;;4.07;66.53
67109;BME280;54027;50.786;7.058;2023-03-11T09:07:06;100453.00;;;3.94;66.20
67109;BME280;54027;50.786;7.058;2023-03-11T09:09:32;100458.03;;;3.88;66.50
67109;BME280;54027;50.786;7.058;2023-03-11T09:11:57;100472.47;;;3.86;67.21
67109;BME280;54027;50.786;7.058;2023-03-11T09:14:22;100474.38;;;3.99;67.15
67109;BME280;54027;50.786;7.058;2023-03-11T09:16:48;100437.94;;;4.17;65.60
67109;BME280;54027;50.786;7.058;2023-03-11T09:19:13;100379.34;;;4.38;63.07
67109;BME280;54027;50.786;7.058;2023-03-11T09:21:38;100272.78;;;4.41;57.06
67109;BME280;54027;50.786;7.058;2023-03-11T09:24:04;100290.75;;;4.49;56.99
67109;BME280;54027;50.786;7.058;2023-03-11T09:26:30;100324.00;;;4.49;58.71
67109;BME280;54027;50.786;7.058;2023-03-11T09:28:56;100312.84;;;4.41;58.38
67109;BME280;54027;50.786;7.058;2023-03-11T09:31:22;100277.91;;;4.41;55.19
67109;BME280;54027;50.786;7.058;2023-03-11T09:33:48;100314.56;;;4.42;56.95
67109;BME280;54027;50.786;7.058;2023-03-11T09:36:16;100318.09;;;4.53;57.62
67109;BME280;54027;50.786;7.058;2023-03-11T09:38:42;100345.47;;;4.61;58.06
67109;BME280;54027;50.786;7.058;2023-03-11T09:48:47;100338.69;;;4.70;57.65
67109;BME280;54027;50.786;7.058;2023-03-11T09:51:19;100302.94;;;4.80;55.16
67109;BME280;54027;50.786;7.058;2023-03-11T09:53:50;100296.28;;;5.05;53.55
67109;BME280;54027;50.786;7.058;2023-03-11T09:56:19;100280.28;;;5.47;53.12
67109;BME280;54027;50.786;7.058;2023-03-11T09:58:49;100286.41;;;5.88;53.53
67109;BME280;54027;50.786;7.058;2023-03-11T10:01:16;100278.78;;;6.17;52.70
67109;BME280;54027;50.786;7.058;2023-03-11T10:03:43;100251.41;;;6.35;50.23
67109;BME280;54027;50.786;7.058;2023-03-11T10:06:13;100254.81;;;6.06;49.81
67109;BME280;54027;50.786;7.058;2023-03-11T10:08:59;100273.63;;;6.05;49.98
67109;BME280;54027;50.786;7.058;2023-03-11T10:25:24;100327.22;;;5.37;48.31
67109;BME280;54027;50.786;7.058;2023-03-11T10:27:54;100319.53;;;5.38;47.40
67109;BME280;54027;50.786;7.058;2023-03-11T10:30:28;100333.16;;;5.31;47.30
67109;BME280;54027;50.786;7.058;2023-03-11T10:33:20;100310.22;;;5.54;46.25
67109;BME280;54027;50.786;7.058;2023-03-11T10:35:53;100330.72;;;5.55;46.78
67109;BME280;54027;50.786;7.058;2023-03-11T10:38:22;100320.47;;;5.58;46.08
67109;BME280;54027;50.786;7.058;2023-03-11T10:40:52;100312.84;;;5.67;45.45
67109;BME280;54027;50.786;7.058;2023-03-11T10:43:37;100421.38;;;5.72;51.02
67109;BME280;54027;50.786;7.058;2023-03-11T10:46:13;100412.94;;;5.87;50.27
67109;BME280;54027;50.786;7.058;2023-03-11T10:48:40;100450.72;;;6.17;52.11
67109;BME280;54027;50.786;7.058;2023-03-11T10:51:15;100414.91;;;6.55;50.36
67109;BME280;54027;50.786;7.058;2023-03-11T10:53:56;100360.94;;;6.50;47.73
67109;BME280;54027;50.786;7.058;2023-03-11T10:58:52;100365.25;;;6.80;47.99
67109;BME280;54027;50.786;7.058;2023-03-11T11:01:19;100374.69;;;7.02;48.93
67109;BME280;54027;50.786;7.058;2023-03-11T11:03:48;100319.84;;;7.12;46.15
67109;BME280;54027;50.786;7.058;2023-03-11T11:06:34;100346.41;;;7.37;47.52
67109;BME280;54027;50.786;7.058;2023-03-11T11:11:37;100289.84;;;7.40;43.38
67109;BME280;54027;50.786;7.058;2023-03-11T11:14:04;100295.84;;;7.30;42.92
67109;BME280;54027;50.786;7.058;2023-03-11T11:16:32;100346.44;;;7.29;44.62
67109;BME280;54027;50.786;7.058;2023-03-11T11:19:12;100321.59;;;7.18;44.12
67109;BME280;54027;50.786;7.058;2023-03-11T11:21:42;100318.16;;;7.25;44.00
67109;BME280;54027;50.786;7.058;2023-03-11T11:24:25;100315.56;;;7.25;43.47
67109;BME280;54027;50.786;7.058;2023-03-11T11:27:23;100330.19;;;6.94;43.69
67109;BME280;54027;50.786;7.058;2023-03-11T11:30:14;100334.44;;;6.75;43.77
67109;BME280;54027;50.786;7.058;2023-03-11T11:32:40;100318.16;;;6.98;43.69
67109;BME280;54027;50.786;7.058;2023-03-11T11:35:11;100366.13;;;6.88;45.73
67109;BME280;54027;50.786;7.058;2023-03-11T11:37:43;100321.59;;;6.94;42.86
67109;BME280;54027;50.786;7.058;2023-03-11T11:42:44;100324.16;;;7.19;42.38
67109;BME280;54027;50.786;7.058;2023-03-11T11:47:59;100348.16;;;7.26;42.78
67109;BME280;54027;50.786;7.058;2023-03-11T11:50:43;100356.69;;;7.37;42.88
67109;BME280;54027;50.786;7.058;2023-03-11T11:55:35;100331.75;;;7.60;40.68
67109;BME280;54027;50.786;7.058;2023-03-11T11:58:08;100316.41;;;7.36;39.46
67109;BME280;54027;50.786;7.058;2023-03-11T12:00:57;100338.69;;;7.37;41.07
67109;BME280;54027;50.786;7.058;2023-03-11T12:07:00;100369.50;;;7.52;42.25
67109;BME280;54027;50.786;7.058;2023-03-11T12:09:58;100373.81;;;7.49;43.05
67109;BME280;54027;50.786;7.058;2023-03-11T12:12:26;100358.41;;;7.30;42.54
67109;BME280;54027;50.786;7.058;2023-03-11T12:17:43;100360.16;;;7.19;42.43
67109;BME280;54027;50.786;7.058;2023-03-11T12:26:03;100357.41;;;7.81;41.42
67109;BME280;54027;50.786;7.058;2023-03-11T12:28:38;100342.81;;;7.85;40.44
67109;BME280;54027;50.786;7.058;2023-03-11T12:31:09;100354.00;;;7.82;40.65
67109;BME280;54027;50.786;7.058;2023-03-11T12:36:02;100396.84;;;7.86;42.92
67109;BME280;54027;50.786;7.058;2023-03-11T12:38:39;100386.50;;;8.06;42.26
67109;BME280;54027;50.786;7.058;2023-03-11T12:41:12;100400.22;;;8.02;43.32
67109;BME280;54027;50.786;7.058;2023-03-11T12:46:16;100394.13;;;8.27;42.89
67109;BME280;54027;50.786;7.058;2023-03-11T12:48:49;100412.91;;;8.41;43.98
67109;BME280;54027;50.786;7.058;2023-03-11T12:54:20;100350.31;;;8.32;41.15
67109;BME280;54027;50.786;7.058;2023-03-11T12:59:59;100369.31;;;8.10;42.14
67109;BME280;54027;50.786;7.058;2023-03-11T13:02:55;100357.31;;;8.06;41.40
67109;BME280;54027;50.786;7.058;2023-03-11T13:06:20;100364.28;;;7.81;42.46
67109;BME280;54027;50.786;7.058;2023-03-11T13:08:43;100381.50;;;7.62;42.46
67109;BME280;54027;50.786;7.058;2023-03-11T13:14:20;100391.81;;;7.41;42.96
67109;BME280;54027;50.786;7.058;2023-03-11T13:16:47;100381.53;;;7.47;42.13
67109;BME280;54027;50.786;7.058;2023-03-11T13:21:54;100395.25;;;7.38;42.62
67109;BME280;54027;50.786;7.058;2023-03-11T13:41:01;100364.94;;;8.24;41.31
67109;BME280;54027;50.786;7.058;2023-03-11T13:43:27;100344.41;;;8.12;39.49
67109;BME280;54027;50.786;7.058;2023-03-11T13:48:43;100345.28;;;8.09;39.75
67109;BME280;54027;50.786;7.058;2023-03-11T13:51:16;100358.19;;;8.06;39.79
67109;BME280;54027;50.786;7.058;2023-03-11T13:53:53;100378.91;;;7.68;42.01
67109;BME280;54027;50.786;7.058;2023-03-11T13:56:30;100409.78;;;7.64;42.46
67109;BME280;54027;50.786;7.058;2023-03-11T14:01:51;100408.03;;;7.79;43.04
67109;BME280;54027;50.786;7.058;2023-03-11T14:04:28;100385.72;;;7.86;41.65
67109;BME280;54027;50.786;7.058;2023-03-11T14:06:54;100404.63;;;7.64;42.44
67109;BME280;54027;50.786;7.058;2023-03-11T14:09:21;100396.03;;;7.74;43.00
67109;BME280;54027;50.786;7.058;2023-03-11T14:11:47;100433.75;;;7.82;44.38
67109;BME280;54027;50.786;7.058;2023-03-11T14:14:33;100430.31;;;7.76;43.89
67109;BME280;54027;50.786;7.058;2023-03-11T14:17:03;100402.88;;;7.75;42.50
67109;BME280;54027;50.786;7.058;2023-03-11T14:19:30;100418.34;;;7.70;43.60
67109;BME280;54027;50.786;7.058;2023-03-11T14:21:56;100413.19;;;7.70;44.03
67109;BME280;54027;50.786;7.058;2023-03-11T14:24:29;100409.78;;;7.62;43.29
67109;BME280;54027;50.786;7.058;2023-03-11T14:26:56;100415.78;;;7.67;43.71
67109;BME280;54027;50.786;7.058;2023-03-11T14:29:31;100439.75;;;7.80;43.97
67109;BME280;54027;50.786;7.058;2023-03-11T14:31:57;100436.28;;;7.94;44.36
67109;BME280;54027;50.786;7.058;2023-03-11T14:34:27;100424.25;;;8.01;42.33